DLH6AN EDDV-EDDM
Flight info
| Callsign | DLH6AN |
|---|---|
| Flight time | 0h 52m |
| Altitude | 31000 |
| Route | POVE3H POVEL Z94 GALMA T703 LULAR T105 LANDU LAN26 |
| Aircraft | A320/M-SDE3FGHIRWY/LB1 |
Departure
| Time | 2026-05-07 04:25 |
|---|---|
| Airport | Hannover Airport (EDDV) |
Arrival
| Time | 2026-05-07 05:17 |
|---|---|
| Airport | Munich Airport (EDDM) |
| Time | Latitude | Longitude | Altitude | Speed | Heading |
|---|---|---|---|---|---|
| 2026-05-07 04:06 | 52.45846 | 9.69467 | 191 ft | 0 kts | 22° |
| 2026-05-07 04:17 | 52.45834 | 9.69459 | 203 ft | 4 kts | 22° |
| 2026-05-07 04:17 | 52.45809 | 9.69443 | 206 ft | 4 kts | 22° |
| 2026-05-07 04:18 | 52.45789 | 9.69430 | 196 ft | 4 kts | 19° |
| 2026-05-07 04:18 | 52.45765 | 9.69428 | 195 ft | 4 kts | 328° |
| 2026-05-07 04:18 | 52.45746 | 9.69452 | 197 ft | 3 kts | 319° |
| 2026-05-07 04:18 | 52.45732 | 9.69471 | 204 ft | 0 kts | 322° |
| 2026-05-07 04:21 | 52.45760 | 9.69324 | 196 ft | 13 kts | 273° |
| 2026-05-07 04:21 | 52.45748 | 9.69180 | 200 ft | 13 kts | 231° |
| 2026-05-07 04:21 | 52.45672 | 9.69146 | 191 ft | 11 kts | 184° |
| 2026-05-07 04:21 | 52.45624 | 9.69077 | 197 ft | 9 kts | 263° |
| 2026-05-07 04:22 | 52.45628 | 9.68944 | 195 ft | 15 kts | 272° |
| 2026-05-07 04:22 | 52.45633 | 9.68749 | 205 ft | 19 kts | 273° |
| 2026-05-07 04:22 | 52.45640 | 9.68522 | 191 ft | 21 kts | 272° |
| 2026-05-07 04:22 | 52.45648 | 9.68266 | 191 ft | 24 kts | 273° |
| 2026-05-07 04:23 | 52.45654 | 9.68040 | 191 ft | 19 kts | 273° |
| 2026-05-07 04:23 | 52.45657 | 9.67827 | 202 ft | 17 kts | 267° |
| 2026-05-07 04:23 | 52.45595 | 9.67705 | 193 ft | 12 kts | 195° |
| 2026-05-07 04:23 | 52.45520 | 9.67702 | 191 ft | 11 kts | 167° |
| 2026-05-07 04:24 | 52.45495 | 9.67807 | 186 ft | 11 kts | 91° |
| 2026-05-07 04:24 | 52.45488 | 9.68076 | 185 ft | 53 kts | 92° |
| 2026-05-07 04:24 | 52.45460 | 9.69097 | 192 ft | 122 kts | 92° |
| 2026-05-07 04:24 | 52.45423 | 9.70729 | 444 ft | 152 kts | 90° |
| 2026-05-07 04:25 | 52.45378 | 9.72447 | 1291 ft | 150 kts | 90° |
| 2026-05-07 04:25 | 52.45334 | 9.74211 | 1903 ft | 161 kts | 90° |
| 2026-05-07 04:25 | 52.45319 | 9.74836 | 2073 ft | 165 kts | 90° |
| 2026-05-07 04:25 | 52.45239 | 9.78136 | 2934 ft | 184 kts | 91° |
| 2026-05-07 04:26 | 52.45189 | 9.80317 | 3382 ft | 199 kts | 91° |
| 2026-05-07 04:26 | 52.45130 | 9.82697 | 3756 ft | 223 kts | 91° |
| 2026-05-07 04:26 | 52.45043 | 9.85368 | 4229 ft | 245 kts | 92° |
| 2026-05-07 04:26 | 52.44945 | 9.88241 | 4988 ft | 256 kts | 92° |
| 2026-05-07 04:27 | 52.44839 | 9.91205 | 5878 ft | 263 kts | 94° |
| 2026-05-07 04:27 | 52.44446 | 9.94180 | 6725 ft | 271 kts | 108° |
| 2026-05-07 04:27 | 52.43939 | 9.96065 | 7288 ft | 274 kts | 117° |
| 2026-05-07 04:27 | 52.42632 | 9.99714 | 8449 ft | 279 kts | 119° |
| 2026-05-07 04:28 | 52.41661 | 10.02444 | 9328 ft | 283 kts | 120° |
| 2026-05-07 04:28 | 52.40665 | 10.05257 | 10158 ft | 288 kts | 120° |
| 2026-05-07 04:28 | 52.39620 | 10.08210 | 10491 ft | 310 kts | 120° |
| 2026-05-07 04:28 | 52.38886 | 10.10283 | 10670 ft | 326 kts | 120° |
| 2026-05-07 04:29 | 52.37720 | 10.13586 | 11108 ft | 341 kts | 120° |
| 2026-05-07 04:29 | 52.36522 | 10.16975 | 11811 ft | 346 kts | 120° |
| 2026-05-07 04:29 | 52.35302 | 10.20412 | 12559 ft | 350 kts | 120° |
| 2026-05-07 04:29 | 52.34073 | 10.23868 | 13326 ft | 354 kts | 121° |
| 2026-05-07 04:30 | 52.32825 | 10.27365 | 14027 ft | 358 kts | 121° |
| 2026-05-07 04:30 | 52.31563 | 10.30896 | 14675 ft | 362 kts | 121° |
| 2026-05-07 04:30 | 52.30283 | 10.34473 | 15326 ft | 365 kts | 121° |
| 2026-05-07 04:30 | 52.28989 | 10.38085 | 15963 ft | 369 kts | 122° |
| 2026-05-07 04:31 | 52.27683 | 10.41727 | 16591 ft | 373 kts | 122° |
| 2026-05-07 04:31 | 52.26805 | 10.44171 | 17015 ft | 376 kts | 122° |
| 2026-05-07 04:31 | 52.25036 | 10.49086 | 17838 ft | 382 kts | 122° |
| 2026-05-07 04:31 | 52.23682 | 10.52847 | 18412 ft | 385 kts | 122° |
| 2026-05-07 04:32 | 52.22316 | 10.56637 | 18938 ft | 389 kts | 122° |
| 2026-05-07 04:32 | 52.20934 | 10.60465 | 19467 ft | 392 kts | 122° |
| 2026-05-07 04:32 | 52.19540 | 10.64316 | 20019 ft | 395 kts | 122° |
| 2026-05-07 04:32 | 52.18130 | 10.68197 | 20543 ft | 398 kts | 122° |
| 2026-05-07 04:33 | 52.16728 | 10.72052 | 21051 ft | 401 kts | 122° |
| 2026-05-07 04:33 | 52.15300 | 10.75975 | 21562 ft | 404 kts | 122° |
| 2026-05-07 04:33 | 52.13690 | 10.79806 | 22077 ft | 405 kts | 131° |
| 2026-05-07 04:33 | 52.11741 | 10.83053 | 22562 ft | 406 kts | 141° |
| 2026-05-07 04:34 | 52.09433 | 10.85727 | 23050 ft | 407 kts | 151° |
| 2026-05-07 04:34 | 52.06930 | 10.87908 | 23514 ft | 409 kts | 153° |
| 2026-05-07 04:34 | 52.04403 | 10.90081 | 23920 ft | 412 kts | 153° |
| 2026-05-07 04:34 | 52.01858 | 10.92273 | 24332 ft | 414 kts | 153° |
| 2026-05-07 04:35 | 51.99304 | 10.94477 | 24744 ft | 415 kts | 153° |
| 2026-05-07 04:35 | 51.96774 | 10.96662 | 25141 ft | 417 kts | 153° |
| 2026-05-07 04:35 | 51.94204 | 10.98881 | 25545 ft | 419 kts | 153° |
| 2026-05-07 04:35 | 51.91607 | 11.01126 | 25955 ft | 421 kts | 152° |
| 2026-05-07 04:36 | 51.89010 | 11.03367 | 26344 ft | 422 kts | 152° |
| 2026-05-07 04:36 | 51.86405 | 11.05605 | 26739 ft | 424 kts | 152° |
| 2026-05-07 04:36 | 51.83816 | 11.07821 | 27130 ft | 426 kts | 152° |
| 2026-05-07 04:36 | 51.81170 | 11.10073 | 27544 ft | 429 kts | 152° |
| 2026-05-07 04:37 | 51.78527 | 11.12333 | 27908 ft | 429 kts | 152° |
| 2026-05-07 04:37 | 51.75876 | 11.14618 | 28280 ft | 433 kts | 152° |
| 2026-05-07 04:37 | 51.73208 | 11.16904 | 28662 ft | 435 kts | 152° |
| 2026-05-07 04:37 | 51.70524 | 11.19178 | 29040 ft | 436 kts | 152° |
| 2026-05-07 04:38 | 51.67831 | 11.21453 | 29396 ft | 437 kts | 152° |
| 2026-05-07 04:38 | 51.65123 | 11.23745 | 29716 ft | 439 kts | 152° |
| 2026-05-07 04:38 | 51.62437 | 11.26026 | 30013 ft | 441 kts | 152° |
| 2026-05-07 04:38 | 51.59711 | 11.28336 | 30315 ft | 441 kts | 152° |
| 2026-05-07 04:39 | 51.56989 | 11.30634 | 30710 ft | 440 kts | 152° |
| 2026-05-07 04:39 | 51.54275 | 11.32923 | 30872 ft | 438 kts | 152° |
| 2026-05-07 04:39 | 51.48940 | 11.37432 | 30900 ft | 430 kts | 152° |
| 2026-05-07 04:40 | 51.43657 | 11.41875 | 30890 ft | 429 kts | 153° |
| 2026-05-07 04:40 | 51.38362 | 11.46317 | 30888 ft | 429 kts | 153° |
| 2026-05-07 04:41 | 51.33054 | 11.50744 | 30881 ft | 430 kts | 153° |
| 2026-05-07 04:41 | 51.27725 | 11.55150 | 30877 ft | 430 kts | 153° |
| 2026-05-07 04:42 | 51.22415 | 11.59551 | 30866 ft | 430 kts | 153° |
| 2026-05-07 04:42 | 51.17125 | 11.63934 | 30859 ft | 430 kts | 153° |
| 2026-05-07 04:43 | 51.11588 | 11.67414 | 30852 ft | 427 kts | 168° |
| 2026-05-07 04:43 | 51.05704 | 11.68225 | 30842 ft | 426 kts | 179° |
| 2026-05-07 04:44 | 50.99764 | 11.68537 | 30838 ft | 426 kts | 178° |
| 2026-05-07 04:44 | 50.93822 | 11.68887 | 30838 ft | 426 kts | 178° |
| 2026-05-07 04:45 | 50.87926 | 11.69228 | 30837 ft | 426 kts | 178° |
| 2026-05-07 04:45 | 50.81995 | 11.69564 | 30833 ft | 425 kts | 178° |
| 2026-05-07 04:46 | 50.76065 | 11.69888 | 30828 ft | 425 kts | 179° |
| 2026-05-07 04:46 | 50.70193 | 11.70634 | 30832 ft | 426 kts | 169° |
| 2026-05-07 04:47 | 50.64511 | 11.73418 | 30821 ft | 425 kts | 163° |
| 2026-05-07 04:47 | 50.58914 | 11.76321 | 30821 ft | 425 kts | 163° |
| 2026-05-07 04:48 | 50.53274 | 11.79225 | 30827 ft | 426 kts | 164° |
| 2026-05-07 04:48 | 50.47634 | 11.82115 | 30831 ft | 426 kts | 164° |
| 2026-05-07 04:49 | 50.42119 | 11.85671 | 30839 ft | 428 kts | 159° |
| 2026-05-07 04:49 | 50.36648 | 11.89385 | 30843 ft | 427 kts | 160° |
| 2026-05-07 04:50 | 50.31213 | 11.93045 | 30839 ft | 427 kts | 160° |
| 2026-05-07 04:50 | 50.25742 | 11.96725 | 30842 ft | 426 kts | 160° |
| 2026-05-07 04:51 | 50.20286 | 12.00403 | 30843 ft | 426 kts | 161° |
| 2026-05-07 04:51 | 50.14859 | 12.04056 | 30846 ft | 426 kts | 161° |
| 2026-05-07 04:52 | 50.09248 | 12.06511 | 30846 ft | 415 kts | 178° |
| 2026-05-07 04:52 | 50.06369 | 12.06947 | 30675 ft | 418 kts | 179° |
| 2026-05-07 04:52 | 50.03453 | 12.07367 | 30217 ft | 422 kts | 179° |
| 2026-05-07 04:53 | 50.00514 | 12.07775 | 29630 ft | 423 kts | 179° |
| 2026-05-07 04:53 | 49.97606 | 12.08174 | 29009 ft | 425 kts | 179° |
| 2026-05-07 04:53 | 49.94646 | 12.08585 | 28395 ft | 427 kts | 179° |
| 2026-05-07 04:53 | 49.91677 | 12.09008 | 27793 ft | 429 kts | 179° |
| 2026-05-07 04:54 | 49.88701 | 12.09435 | 27201 ft | 428 kts | 179° |
| 2026-05-07 04:54 | 49.85737 | 12.09862 | 26621 ft | 426 kts | 179° |
| 2026-05-07 04:54 | 49.82798 | 12.10287 | 26144 ft | 421 kts | 178° |
| 2026-05-07 04:54 | 49.79889 | 12.10711 | 25676 ft | 417 kts | 178° |
| 2026-05-07 04:55 | 49.77033 | 12.11123 | 25230 ft | 415 kts | 178° |
| 2026-05-07 04:55 | 49.74134 | 12.11534 | 24784 ft | 412 kts | 178° |
| 2026-05-07 04:55 | 49.71314 | 12.11932 | 24355 ft | 410 kts | 178° |
| 2026-05-07 04:55 | 49.68464 | 12.12333 | 23920 ft | 408 kts | 178° |
| 2026-05-07 04:56 | 49.65640 | 12.12727 | 23496 ft | 406 kts | 178° |
| 2026-05-07 04:56 | 49.62825 | 12.13125 | 23000 ft | 404 kts | 178° |
| 2026-05-07 04:56 | 49.61863 | 12.13262 | 22823 ft | 403 kts | 178° |
| 2026-05-07 04:57 | 49.60144 | 12.13509 | 22513 ft | 401 kts | 178° |
| 2026-05-07 04:57 | 49.57369 | 12.13907 | 22040 ft | 399 kts | 178° |
| 2026-05-07 04:57 | 49.54604 | 12.14296 | 21565 ft | 396 kts | 179° |
| 2026-05-07 04:58 | 49.51858 | 12.14679 | 21095 ft | 394 kts | 179° |
| 2026-05-07 04:58 | 49.49163 | 12.15049 | 20638 ft | 392 kts | 179° |
| 2026-05-07 04:58 | 49.46451 | 12.15420 | 20189 ft | 390 kts | 179° |
| 2026-05-07 04:58 | 49.43750 | 12.15796 | 19768 ft | 388 kts | 179° |
| 2026-05-07 04:59 | 49.41056 | 12.16172 | 19386 ft | 386 kts | 179° |
| 2026-05-07 04:59 | 49.38408 | 12.16544 | 19002 ft | 385 kts | 179° |
| 2026-05-07 04:59 | 49.35744 | 12.16921 | 18618 ft | 383 kts | 179° |
| 2026-05-07 04:59 | 49.33091 | 12.17297 | 18253 ft | 382 kts | 179° |
| 2026-05-07 05:00 | 49.30448 | 12.17668 | 17819 ft | 380 kts | 179° |
| 2026-05-07 05:00 | 49.27813 | 12.18036 | 17385 ft | 378 kts | 178° |
| 2026-05-07 05:00 | 49.25193 | 12.18400 | 16964 ft | 376 kts | 178° |
| 2026-05-07 05:00 | 49.23468 | 12.18639 | 16679 ft | 374 kts | 178° |
| 2026-05-07 05:01 | 49.20873 | 12.18996 | 16271 ft | 372 kts | 178° |
| 2026-05-07 05:01 | 49.18302 | 12.19352 | 15858 ft | 370 kts | 178° |
| 2026-05-07 05:01 | 49.15752 | 12.19705 | 15460 ft | 367 kts | 178° |
| 2026-05-07 05:01 | 49.13206 | 12.20061 | 15062 ft | 365 kts | 178° |
| 2026-05-07 05:02 | 49.10679 | 12.20409 | 14668 ft | 364 kts | 178° |
| 2026-05-07 05:02 | 49.08188 | 12.20749 | 14288 ft | 360 kts | 177° |
| 2026-05-07 05:02 | 49.05698 | 12.21096 | 13891 ft | 348 kts | 177° |
| 2026-05-07 05:02 | 49.03375 | 12.21421 | 13485 ft | 329 kts | 177° |
| 2026-05-07 05:03 | 49.01153 | 12.21734 | 13135 ft | 311 kts | 177° |
| 2026-05-07 05:03 | 48.99056 | 12.22026 | 12870 ft | 297 kts | 178° |
| 2026-05-07 05:03 | 48.97006 | 12.22307 | 12600 ft | 292 kts | 178° |
| 2026-05-07 05:03 | 48.94995 | 12.22580 | 12358 ft | 288 kts | 178° |
| 2026-05-07 05:04 | 48.93023 | 12.22845 | 12091 ft | 287 kts | 178° |
| 2026-05-07 05:04 | 48.91033 | 12.23116 | 11834 ft | 284 kts | 178° |
| 2026-05-07 05:04 | 48.89067 | 12.23384 | 11582 ft | 283 kts | 178° |
| 2026-05-07 05:04 | 48.87098 | 12.23651 | 11331 ft | 283 kts | 178° |
| 2026-05-07 05:05 | 48.85142 | 12.23917 | 11087 ft | 281 kts | 178° |
| 2026-05-07 05:05 | 48.83189 | 12.24185 | 10841 ft | 281 kts | 178° |
| 2026-05-07 05:05 | 48.81242 | 12.24450 | 10597 ft | 281 kts | 178° |
| 2026-05-07 05:05 | 48.79299 | 12.24719 | 10352 ft | 278 kts | 178° |
| 2026-05-07 05:06 | 48.77392 | 12.24984 | 10118 ft | 278 kts | 178° |
| 2026-05-07 05:06 | 48.75467 | 12.25247 | 9872 ft | 277 kts | 179° |
| 2026-05-07 05:06 | 48.73543 | 12.25505 | 9609 ft | 277 kts | 179° |
| 2026-05-07 05:06 | 48.71623 | 12.25763 | 9345 ft | 276 kts | 178° |
| 2026-05-07 05:07 | 48.69711 | 12.26022 | 9077 ft | 275 kts | 178° |
| 2026-05-07 05:07 | 48.67801 | 12.26278 | 8817 ft | 274 kts | 178° |
| 2026-05-07 05:07 | 48.65920 | 12.26527 | 8562 ft | 274 kts | 178° |
| 2026-05-07 05:07 | 48.64021 | 12.26779 | 8303 ft | 273 kts | 178° |
| 2026-05-07 05:08 | 48.62131 | 12.27034 | 8047 ft | 271 kts | 178° |
| 2026-05-07 05:08 | 48.60250 | 12.27295 | 7799 ft | 269 kts | 178° |
| 2026-05-07 05:08 | 48.58408 | 12.27470 | 7564 ft | 258 kts | 187° |
| 2026-05-07 05:08 | 48.56707 | 12.26828 | 7342 ft | 248 kts | 200° |
| 2026-05-07 05:09 | 48.55085 | 12.25999 | 7121 ft | 244 kts | 201° |
| 2026-05-07 05:09 | 48.53503 | 12.25173 | 6915 ft | 237 kts | 201° |
| 2026-05-07 05:09 | 48.51954 | 12.24360 | 6723 ft | 234 kts | 201° |
| 2026-05-07 05:09 | 48.50449 | 12.23573 | 6535 ft | 229 kts | 201° |
| 2026-05-07 05:10 | 48.48947 | 12.22788 | 6372 ft | 227 kts | 201° |
| 2026-05-07 05:10 | 48.47467 | 12.22016 | 6190 ft | 223 kts | 201° |
| 2026-05-07 05:10 | 48.46013 | 12.21260 | 6014 ft | 219 kts | 201° |
| 2026-05-07 05:10 | 48.44586 | 12.20519 | 5834 ft | 214 kts | 201° |
| 2026-05-07 05:11 | 48.43188 | 12.19792 | 5652 ft | 211 kts | 201° |
| 2026-05-07 05:11 | 48.41834 | 12.19088 | 5517 ft | 205 kts | 201° |
| 2026-05-07 05:11 | 48.40569 | 12.18121 | 5389 ft | 199 kts | 220° |
| 2026-05-07 05:11 | 48.39653 | 12.16627 | 5266 ft | 197 kts | 239° |
| 2026-05-07 05:12 | 48.39138 | 12.14736 | 5137 ft | 196 kts | 259° |
| 2026-05-07 05:12 | 48.38973 | 12.12704 | 5077 ft | 195 kts | 263° |
| 2026-05-07 05:12 | 48.38823 | 12.10673 | 4995 ft | 194 kts | 264° |
| 2026-05-07 05:12 | 48.38677 | 12.08687 | 4956 ft | 188 kts | 264° |
| 2026-05-07 05:13 | 48.38534 | 12.06741 | 4788 ft | 185 kts | 264° |
| 2026-05-07 05:13 | 48.38392 | 12.04825 | 4562 ft | 184 kts | 264° |
| 2026-05-07 05:13 | 48.38251 | 12.02920 | 4324 ft | 182 kts | 264° |
| 2026-05-07 05:13 | 48.38110 | 12.01033 | 4080 ft | 181 kts | 264° |
| 2026-05-07 05:14 | 48.37970 | 11.99159 | 3837 ft | 180 kts | 264° |
| 2026-05-07 05:14 | 48.37833 | 11.97319 | 3603 ft | 177 kts | 264° |
| 2026-05-07 05:14 | 48.37696 | 11.95489 | 3372 ft | 174 kts | 264° |
| 2026-05-07 05:14 | 48.37564 | 11.93727 | 3155 ft | 163 kts | 263° |
| 2026-05-07 05:15 | 48.37442 | 11.92116 | 2932 ft | 147 kts | 264° |
| 2026-05-07 05:15 | 48.37331 | 11.90631 | 2736 ft | 140 kts | 264° |
| 2026-05-07 05:15 | 48.37226 | 11.89191 | 2525 ft | 137 kts | 264° |
| 2026-05-07 05:15 | 48.37126 | 11.87791 | 2314 ft | 136 kts | 263° |
| 2026-05-07 05:16 | 48.37014 | 11.86376 | 2099 ft | 136 kts | 262° |
| 2026-05-07 05:16 | 48.36907 | 11.84952 | 1891 ft | 137 kts | 262° |
| 2026-05-07 05:16 | 48.36800 | 11.83539 | 1712 ft | 135 kts | 262° |
| 2026-05-07 05:16 | 48.36691 | 11.82136 | 1542 ft | 134 kts | 263° |
| 2026-05-07 05:17 | 48.36590 | 11.80850 | 1485 ft | 106 kts | 263° |
| 2026-05-07 05:17 | 48.36526 | 11.80042 | 1485 ft | 46 kts | 263° |
| 2026-05-07 05:17 | 48.36473 | 11.79751 | 1475 ft | 27 kts | 239° |
| 2026-05-07 05:17 | 48.36382 | 11.79568 | 1479 ft | 12 kts | 233° |
| 2026-05-07 05:18 | 48.36332 | 11.79467 | 1480 ft | 13 kts | 233° |
| 2026-05-07 05:18 | 48.36283 | 11.79367 | 1479 ft | 11 kts | 233° |
| 2026-05-07 05:18 | 48.36238 | 11.79302 | 1480 ft | 8 kts | 208° |
| 2026-05-07 05:18 | 48.36187 | 11.79299 | 1473 ft | 7 kts | 175° |
| 2026-05-07 05:19 | 48.36147 | 11.79304 | 1483 ft | 5 kts | 175° |
| 2026-05-07 05:19 | 48.36120 | 11.79308 | 1475 ft | 3 kts | 175° |
| 2026-05-07 05:19 | 48.36087 | 11.79315 | 1485 ft | 6 kts | 172° |
| 2026-05-07 05:19 | 48.36051 | 11.79322 | 1481 ft | 5 kts | 172° |
| 2026-05-07 05:20 | 48.36023 | 11.79328 | 1474 ft | 3 kts | 172° |
| 2026-05-07 05:20 | 48.35978 | 11.79337 | 1485 ft | 10 kts | 173° |
| 2026-05-07 05:20 | 48.35892 | 11.79374 | 1481 ft | 14 kts | 164° |
| 2026-05-07 05:20 | 48.35791 | 11.79395 | 1485 ft | 16 kts | 174° |
| 2026-05-07 05:21 | 48.35687 | 11.79412 | 1481 ft | 10 kts | 174° |
| 2026-05-07 05:21 | 48.35647 | 11.79328 | 1478 ft | 6 kts | 263° |
| 2026-05-07 05:21 | 48.35643 | 11.79273 | 1477 ft | 0 kts | 263° |